createdAt,value
2022-09-10T00:01:05.987Z,104233.03
2022-09-10T00:03:32.450Z,104248.97
2022-09-10T00:05:58.929Z,104226.84
2022-09-10T00:08:25.992Z,104212.81
2022-09-10T00:10:52.463Z,104221.69
2022-09-10T00:13:21.721Z,104703.38
2022-09-10T00:15:51.032Z,105012.09
2022-09-10T00:18:19.236Z,104960.66
2022-09-10T00:20:53.112Z,104867.50
2022-09-10T00:23:23.683Z,104767.22
2022-09-10T00:25:52.074Z,104717.53
2022-09-10T00:28:18.398Z,104669.66
2022-09-10T00:30:47.463Z,104612.94
2022-09-10T00:33:15.761Z,104639.53
2022-09-10T00:35:42.468Z,104649.25
2022-09-10T00:38:10.827Z,104618.28
2022-09-10T00:40:37.751Z,104612.97
2022-09-10T00:43:10.285Z,104560.63
2022-09-10T00:45:36.949Z,104666.19
2022-09-10T00:48:11.492Z,104708.78
2022-09-10T00:50:41.951Z,104704.34
2022-09-10T00:53:13.028Z,104680.41
2022-09-10T00:55:42.351Z,104659.13
2022-09-10T00:58:11.849Z,104665.34
2022-09-10T01:00:41.044Z,104896.78
2022-09-10T01:03:11.254Z,104930.50
2022-09-10T01:05:42.270Z,104973.94
2022-09-10T01:08:14.329Z,104989.03
2022-09-10T01:11:10.183Z,105067.06
2022-09-10T01:14:10.633Z,105165.53
2022-09-10T01:16:47.992Z,105099.00
2022-09-10T01:19:37.497Z,104580.19
2022-09-10T01:22:22.757Z,106433.25
2022-09-10T01:25:27.375Z,106922.66
2022-09-10T01:27:57.883Z,106875.94
2022-09-10T01:30:32.216Z,106834.41
2022-09-10T01:33:11.788Z,106818.28
2022-09-10T01:35:44.490Z,106800.63
2022-09-10T01:38:26.447Z,106798.53
2022-09-10T01:40:55.100Z,106780.75
2022-09-10T01:43:22.915Z,106797.66
2022-09-10T01:45:52.345Z,106800.16
2022-09-10T01:48:47.849Z,106851.28
2022-09-10T01:51:46.063Z,106712.91
2022-09-10T01:54:37.397Z,107205.47
2022-09-10T01:57:03.783Z,107413.50
2022-09-10T01:59:45.231Z,107465.53
2022-09-10T02:02:23.655Z,107662.56
2022-09-10T02:04:51.478Z,107846.09
2022-09-10T02:07:22.358Z,107799.97
2022-09-10T02:09:50.656Z,107765.91
2022-09-10T02:12:18.994Z,107781.31
2022-09-10T02:14:49.679Z,107744.22
2022-09-10T02:17:16.560Z,107902.56
2022-09-10T02:19:46.488Z,107456.97
2022-09-10T02:22:15.363Z,107962.25
2022-09-10T02:24:44.407Z,108063.44
2022-09-10T02:27:14.897Z,108201.31
2022-09-10T02:29:41.441Z,108141.75
2022-09-10T02:32:09.361Z,108203.53
2022-09-10T02:34:36.794Z,108285.56
2022-09-10T02:37:03.828Z,108323.97
2022-09-10T02:39:30.765Z,108372.06
2022-09-10T02:41:58.632Z,108568.59
2022-09-10T02:44:27.955Z,108578.63
2022-09-10T02:46:55.500Z,108559.00
2022-09-10T02:49:22.020Z,108440.47
2022-09-10T02:51:50.455Z,108515.09
2022-09-10T02:54:17.806Z,108698.06
2022-09-10T02:56:44.213Z,108747.66
2022-09-10T02:59:10.728Z,108867.38
2022-09-10T03:01:38.645Z,108951.88
2022-09-10T03:04:05.655Z,108869.41
2022-09-10T03:06:32.439Z,108818.81
2022-09-10T03:08:58.877Z,108631.34
2022-09-10T03:11:27.438Z,108574.69
2022-09-10T03:13:54.528Z,109993.66
2022-09-10T03:16:21.318Z,109530.16
2022-09-10T03:18:48.023Z,109358.50
2022-09-10T03:21:27.464Z,109249.22
2022-09-10T03:23:56.960Z,109233.22
2022-09-10T03:26:25.348Z,109274.47
2022-09-10T03:28:52.197Z,109262.16
2022-09-10T03:31:19.080Z,109285.44
2022-09-10T03:33:46.330Z,109155.25
2022-09-10T03:36:15.640Z,109242.44
2022-09-10T03:38:42.503Z,109226.44
2022-09-10T03:41:09.203Z,109267.50
2022-09-10T03:43:35.850Z,109248.09
2022-09-10T03:46:02.985Z,109163.56
2022-09-10T03:48:29.898Z,109032.63
2022-09-10T03:50:56.427Z,109130.25
2022-09-10T03:53:23.767Z,109186.66
2022-09-10T03:55:51.800Z,109196.78
2022-09-10T03:58:18.643Z,109217.00
2022-09-10T04:00:46.377Z,109229.63
2022-09-10T04:03:16.860Z,109241.22
2022-09-10T04:05:44.084Z,109226.75
2022-09-10T04:08:14.282Z,109258.84
2022-09-10T04:10:42.519Z,109313.25
2022-09-10T04:13:09.399Z,109329.88
2022-09-10T04:15:37.332Z,109285.75
2022-09-10T04:18:05.935Z,109230.72
2022-09-10T04:20:33.395Z,109282.47
2022-09-10T04:23:00.272Z,109343.84
2022-09-10T04:25:27.504Z,109348.53
2022-09-10T04:27:54.524Z,109288.19
2022-09-10T04:30:20.927Z,109268.06
2022-09-10T04:32:47.460Z,109204.66
2022-09-10T04:35:17.154Z,109106.91
2022-09-10T04:37:43.660Z,109007.25
2022-09-10T04:40:10.883Z,108948.75
2022-09-10T04:42:38.179Z,108911.47
2022-09-10T04:45:05.715Z,108827.91
2022-09-10T04:47:32.215Z,108815.75
2022-09-10T04:49:58.944Z,108751.91
2022-09-10T04:52:25.395Z,108760.56
2022-09-10T04:54:51.809Z,108715.38
2022-09-10T04:57:18.363Z,108588.09
2022-09-10T04:59:45.095Z,108652.31
2022-09-10T05:02:11.592Z,108711.16
2022-09-10T05:04:39.367Z,108765.66
2022-09-10T05:07:05.963Z,108835.97
2022-09-10T05:09:33.519Z,108902.06
2022-09-10T05:12:01.044Z,108845.16
2022-09-10T05:14:28.044Z,108877.53
2022-09-10T05:16:55.181Z,108882.72
2022-09-10T05:19:21.660Z,108969.97
2022-09-10T05:21:48.426Z,108988.59
2022-09-10T05:24:15.128Z,109074.00
2022-09-10T05:26:42.452Z,109229.50
2022-09-10T05:29:08.842Z,109343.78
2022-09-10T05:31:35.780Z,109339.78
2022-09-10T05:34:02.564Z,109319.81
2022-09-10T05:36:31.894Z,109256.97
2022-09-10T05:39:00.223Z,109097.22
2022-09-10T05:41:28.225Z,109064.38
2022-09-10T05:43:55.005Z,108926.38
2022-09-10T05:46:22.226Z,108779.28
2022-09-10T05:48:49.043Z,108699.09
2022-09-10T05:51:15.773Z,108655.81
2022-09-10T05:53:42.352Z,108520.66
2022-09-10T05:56:09.218Z,108497.06
2022-09-10T05:58:35.776Z,108345.03
2022-09-10T06:01:02.371Z,108078.16
2022-09-10T06:03:28.881Z,107817.13
2022-09-10T06:05:55.683Z,107361.97
2022-09-10T06:08:23.305Z,107033.19
2022-09-10T06:11:07.271Z,106603.63
2022-09-10T06:13:34.826Z,106491.50
2022-09-10T06:16:02.353Z,106373.97
2022-09-10T06:18:29.884Z,106087.13
2022-09-10T06:21:08.816Z,105712.03
2022-09-10T06:23:39.329Z,105738.75
2022-09-10T06:26:09.780Z,105395.59
2022-09-10T06:28:37.658Z,104967.81
2022-09-10T06:31:05.706Z,104763.75
2022-09-10T06:33:32.967Z,104597.06
2022-09-10T06:36:01.896Z,104489.16
2022-09-10T06:38:31.045Z,104440.06
2022-09-10T06:41:00.583Z,104394.56
2022-09-10T06:43:27.934Z,104352.56
2022-09-10T06:45:55.542Z,104333.84
2022-09-10T06:48:47.865Z,104354.25
2022-09-10T06:51:16.155Z,104308.75
2022-09-10T06:53:44.359Z,104297.66
2022-09-10T06:56:12.051Z,104265.66
2022-09-10T06:58:39.812Z,104278.06
2022-09-10T07:01:14.838Z,104255.72
2022-09-10T07:03:43.440Z,104290.22
2022-09-10T07:06:13.485Z,104257.38
2022-09-10T07:08:40.299Z,104248.13
2022-09-10T07:11:11.474Z,104223.16
2022-09-10T07:13:38.502Z,104224.53
2022-09-10T07:16:05.168Z,104220.81
2022-09-10T07:18:31.947Z,104195.59
2022-09-10T07:21:09.063Z,104151.28
2022-09-10T07:23:35.666Z,104127.94
2022-09-10T07:26:12.115Z,104101.94
2022-09-10T07:28:40.471Z,103941.44
2022-09-10T07:31:15.945Z,103894.88
2022-09-10T07:33:43.292Z,103884.88
2022-09-10T07:36:10.476Z,103909.47
2022-09-10T07:38:38.446Z,103884.50
2022-09-10T07:41:06.547Z,103820.91
2022-09-10T07:43:33.281Z,103758.56
2022-09-10T07:46:03.988Z,103704.94
2022-09-10T07:48:30.739Z,103607.56
2022-09-10T07:51:05.187Z,103533.00
2022-09-10T07:53:31.850Z,103479.28
2022-09-10T07:56:03.390Z,103361.03
2022-09-10T07:58:31.850Z,103303.06
2022-09-10T08:00:59.825Z,103172.31
2022-09-10T08:03:29.639Z,103118.81
2022-09-10T08:06:00.796Z,103065.19
2022-09-10T08:08:34.804Z,103012.34
2022-09-10T08:11:14.519Z,102959.59
2022-09-10T08:13:44.226Z,102906.09
2022-09-10T08:16:13.171Z,102862.66
2022-09-10T08:18:40.355Z,102830.56
2022-09-10T08:21:10.833Z,102753.94
2022-09-10T08:23:39.551Z,102678.47
2022-09-10T08:26:08.392Z,102605.09
2022-09-10T08:28:36.035Z,102537.56
2022-09-10T08:31:07.845Z,102477.75
2022-09-10T08:33:35.864Z,102433.19
2022-09-10T08:36:04.694Z,102392.97
2022-09-10T08:38:35.995Z,102354.50
2022-09-10T08:41:17.331Z,102317.19
2022-09-10T08:43:51.616Z,102292.44
2022-09-10T08:46:27.061Z,102262.84
2022-09-10T08:49:06.720Z,102248.69
2022-09-10T08:51:42.417Z,102224.91
2022-09-10T08:54:19.680Z,102193.63
2022-09-10T08:56:47.863Z,102172.84
2022-09-10T08:59:33.481Z,102142.13
2022-09-10T09:02:11.202Z,102118.88
2022-09-10T09:04:49.910Z,102086.13
2022-09-10T09:07:19.850Z,102051.81
2022-09-10T09:09:53.083Z,102013.59
2022-09-10T09:12:33.467Z,101963.50
2022-09-10T09:15:17.374Z,101932.44
2022-09-10T09:18:08.644Z,101891.28
2022-09-10T09:20:56.497Z,101867.53
2022-09-10T09:23:32.929Z,101821.06
2022-09-10T09:26:05.527Z,101792.59
2022-09-10T09:28:43.732Z,101748.03
2022-09-10T09:31:16.710Z,101715.84
2022-09-10T09:33:45.359Z,101675.94
2022-09-10T09:36:18.283Z,101625.88
2022-09-10T09:38:49.140Z,101602.78
2022-09-10T09:41:26.545Z,101575.25
2022-09-10T09:44:14.647Z,101528.53
2022-09-10T09:46:41.036Z,101511.66
2022-09-10T09:49:15.794Z,101506.09
2022-09-10T09:51:46.483Z,101500.38
2022-09-10T09:57:15.866Z,101464.59
2022-09-10T09:59:42.352Z,101443.13
2022-09-10T10:02:16.116Z,101432.78
2022-09-10T10:04:55.561Z,101427.50
2022-09-10T10:07:26.987Z,101419.19
2022-09-10T10:09:53.671Z,101416.22
2022-09-10T10:12:21.605Z,101404.78
2022-09-10T10:14:48.448Z,101419.09
2022-09-10T10:17:41.151Z,101407.88
2022-09-10T10:20:11.135Z,101419.69
2022-09-10T10:22:40.449Z,101417.94
2022-09-10T10:25:41.270Z,101421.84
2022-09-10T10:28:19.989Z,101413.09
2022-09-10T10:30:51.796Z,101416.09
2022-09-10T10:33:23.686Z,101429.09
2022-09-10T10:36:00.708Z,101424.84
2022-09-10T10:38:37.420Z,101422.09
2022-09-10T10:41:05.436Z,101428.44
2022-09-10T10:43:53.596Z,101427.38
2022-09-10T10:46:22.506Z,101428.03
2022-09-10T10:49:27.931Z,101429.34
2022-09-10T10:52:10.348Z,101426.41
2022-09-10T10:55:01.943Z,101428.16
2022-09-10T10:57:52.870Z,101430.03
2022-09-10T11:00:20.706Z,101422.94
2022-09-10T11:03:03.027Z,101415.09
2022-09-10T11:05:33.585Z,101414.03
2022-09-10T11:08:09.395Z,101413.16
2022-09-10T11:10:44.985Z,101415.50
2022-09-10T11:13:24.606Z,101394.84
2022-09-10T11:15:59.330Z,101383.44
2022-09-10T11:18:33.386Z,101380.25
2022-09-10T11:21:03.090Z,101380.31
2022-09-10T11:23:51.660Z,101371.97
2022-09-10T11:26:27.572Z,101385.56
2022-09-10T11:29:08.812Z,101364.13
2022-09-10T11:31:40.399Z,101364.28
2022-09-10T11:34:34.543Z,101342.72
2022-09-10T11:37:18.139Z,101361.09
2022-09-10T11:39:52.492Z,101332.78
2022-09-10T11:42:36.413Z,101331.72
2022-09-10T11:45:19.514Z,101285.78
2022-09-10T11:47:56.388Z,101252.63
2022-09-10T11:50:34.417Z,101229.22
2022-09-10T11:53:02.473Z,101189.19
2022-09-10T11:55:57.746Z,101232.50
2022-09-10T11:58:48.986Z,101368.06
2022-09-10T12:01:45.695Z,101216.72
2022-09-10T12:04:29.156Z,101076.22
2022-09-10T12:06:56.221Z,101127.44
2022-09-10T12:09:36.204Z,101140.94
2022-09-10T12:12:22.464Z,101134.22
2022-09-10T12:14:49.057Z,101141.09
2022-09-10T12:17:27.207Z,101160.06
2022-09-10T12:20:00.597Z,101147.13
2022-09-10T12:22:40.258Z,101142.72
2022-09-10T12:25:22.529Z,101115.72
2022-09-10T12:27:56.803Z,101120.34
2022-09-10T12:30:29.207Z,101063.59
2022-09-10T12:33:01.195Z,101068.41
2022-09-10T12:35:31.141Z,101062.75
2022-09-10T12:38:35.915Z,101028.88
2022-09-10T12:41:10.815Z,101078.31
2022-09-10T12:43:40.397Z,101048.25
2022-09-10T12:46:07.184Z,100983.91
2022-09-10T12:48:35.835Z,101028.28
2022-09-10T12:51:18.309Z,101068.63
2022-09-10T12:54:03.931Z,100942.22
2022-09-10T12:56:40.071Z,100968.81
2022-09-10T12:59:28.314Z,100926.75
2022-09-10T13:01:56.066Z,100912.50
2022-09-10T13:04:36.351Z,100872.97
2022-09-10T13:07:21.301Z,100710.78
2022-09-10T13:09:59.068Z,100774.00
2022-09-10T13:12:26.299Z,100875.53
2022-09-10T13:14:56.409Z,100819.44
2022-09-10T13:17:49.466Z,100743.38
2022-09-10T13:20:21.934Z,100714.91
2022-09-10T13:23:06.180Z,100765.63
2022-09-10T13:25:46.460Z,100767.44
2022-09-10T13:28:34.020Z,100879.28
2022-09-10T13:31:06.251Z,100797.63
2022-09-10T13:33:42.463Z,100815.25
2022-09-10T13:36:15.467Z,100808.22
2022-09-10T13:39:20.647Z,100929.38
2022-09-10T13:41:50.129Z,101024.00
2022-09-10T13:44:31.700Z,100976.19
2022-09-10T13:47:05.708Z,100927.72
2022-09-10T13:49:45.156Z,100940.84
2022-09-10T13:52:15.099Z,100887.84
2022-09-10T13:54:55.064Z,100895.44
2022-09-10T13:57:29.960Z,100955.34
2022-09-10T14:00:07.804Z,100850.88
2022-09-10T14:03:03.201Z,100769.94
2022-09-10T14:05:50.738Z,100786.38
2022-09-10T14:08:31.308Z,100762.63
2022-09-10T14:11:15.863Z,100607.31
2022-09-10T14:13:48.532Z,100606.59
2022-09-10T14:16:30.104Z,100638.25
2022-09-10T14:19:01.735Z,100692.94
2022-09-10T14:21:28.761Z,100593.06
2022-09-10T14:23:58.927Z,100544.69
2022-09-10T14:26:28.337Z,100523.16
2022-09-10T14:29:17.830Z,100486.81
2022-09-10T14:31:45.200Z,100578.78
2022-09-10T14:34:30.438Z,100687.25
2022-09-10T14:36:58.588Z,100767.91
2022-09-10T14:39:25.786Z,100893.75
2022-09-10T14:42:11.039Z,100859.34
2022-09-10T14:44:42.389Z,100866.94
2022-09-10T14:47:08.779Z,100819.59
2022-09-10T14:49:41.408Z,100778.97
2022-09-10T14:52:11.176Z,100720.19
2022-09-10T14:54:37.622Z,100762.38
2022-09-10T14:57:09.834Z,100702.97
2022-09-10T14:59:41.980Z,100657.25
2022-09-10T15:02:29.016Z,100635.16
2022-09-10T15:04:55.623Z,100748.91
2022-09-10T15:07:23.711Z,100799.19
2022-09-10T15:09:51.980Z,100907.56
2022-09-10T15:12:23.820Z,100938.31
2022-09-10T15:14:51.208Z,101032.41
2022-09-10T15:17:18.141Z,101103.34
2022-09-10T15:19:45.263Z,101150.22
2022-09-10T15:22:29.838Z,101216.88
2022-09-10T15:25:12.547Z,101268.41
2022-09-10T15:27:39.156Z,101187.97
2022-09-10T15:30:06.738Z,100996.47
2022-09-10T15:32:33.381Z,100959.47
2022-09-10T15:34:59.879Z,100874.47
2022-09-10T15:37:27.046Z,100937.59
2022-09-10T15:39:54.475Z,100972.75
2022-09-10T15:42:21.289Z,101002.19
2022-09-10T15:44:47.751Z,101035.41
2022-09-10T15:47:14.868Z,101106.94
2022-09-10T15:49:41.562Z,101182.50
2022-09-10T15:52:08.060Z,101264.66
2022-09-10T15:54:34.476Z,101267.75
2022-09-10T15:57:01.183Z,101257.47
2022-09-10T15:59:28.363Z,101255.28
2022-09-10T16:01:54.806Z,101243.38
2022-09-10T16:04:21.281Z,101211.72
2022-09-10T16:06:47.701Z,101236.25
2022-09-10T16:09:14.230Z,101227.81
2022-09-10T16:11:42.481Z,101196.38
2022-09-10T16:14:13.017Z,101225.44
2022-09-10T16:16:40.847Z,101278.91
2022-09-10T16:19:07.800Z,101312.53
2022-09-10T16:21:36.725Z,101321.66
2022-09-10T16:24:04.687Z,101337.41
2022-09-10T16:26:34.630Z,101344.25
2022-09-10T16:29:04.111Z,101363.25
2022-09-10T16:31:39.136Z,101376.00
2022-09-10T16:34:07.173Z,101391.50
2022-09-10T16:36:34.708Z,101381.59
2022-09-10T16:39:01.716Z,101379.97
2022-09-10T16:41:28.847Z,101372.75
2022-09-10T16:43:58.539Z,101377.38
2022-09-10T16:46:26.411Z,101380.25
2022-09-10T16:48:54.396Z,101383.97
2022-09-10T16:51:25.365Z,101377.97
2022-09-10T16:53:58.835Z,101395.16
2022-09-10T16:56:25.701Z,101409.34
2022-09-10T16:58:52.541Z,101417.69
2022-09-10T17:01:20.751Z,101411.78
2022-09-10T17:03:52.127Z,101422.34
2022-09-10T17:06:21.168Z,101466.72
2022-09-10T17:08:47.668Z,101520.25
2022-09-10T17:11:16.016Z,101551.50
2022-09-10T17:13:42.691Z,101528.69
2022-09-10T17:16:30.900Z,101517.97
2022-09-10T17:19:04.267Z,101493.22
2022-09-10T17:21:32.075Z,101476.44
2022-09-10T17:23:59.855Z,101466.28
2022-09-10T17:26:27.044Z,101449.94
2022-09-10T17:28:55.376Z,101438.84
2022-09-10T17:31:22.087Z,101422.13
2022-09-10T17:33:48.797Z,101402.66
2022-09-10T17:36:15.580Z,101393.28
2022-09-10T17:38:42.204Z,101380.75
2022-09-10T17:41:09.143Z,101369.28
2022-09-10T17:43:40.663Z,101355.66
2022-09-10T17:46:10.361Z,101338.97
2022-09-10T17:48:37.899Z,101329.38
2022-09-10T17:51:10.843Z,101315.63
2022-09-10T17:53:44.069Z,101315.69
2022-09-10T17:56:15.127Z,101299.13
2022-09-10T17:58:50.537Z,101304.50
2022-09-10T18:01:24.305Z,101286.22
2022-09-10T18:03:53.766Z,101290.00
2022-09-10T18:06:33.212Z,101323.69
2022-09-10T18:09:01.299Z,101332.34
2022-09-10T18:11:32.502Z,101350.59
2022-09-10T18:14:02.538Z,101367.84
2022-09-10T18:16:34.802Z,101396.91
2022-09-10T18:19:13.589Z,101547.31
2022-09-10T18:21:42.207Z,101578.69
2022-09-10T18:24:39.760Z,101600.53
2022-09-10T18:27:09.124Z,101628.13
2022-09-10T18:29:35.901Z,101654.59
2022-09-10T18:32:02.645Z,101672.91
2022-09-10T18:34:30.914Z,101714.97
2022-09-10T18:37:01.707Z,101743.19
2022-09-10T18:39:32.358Z,101766.97
2022-09-10T18:42:02.790Z,101799.94
2022-09-10T18:44:35.295Z,101825.00
2022-09-10T18:47:02.346Z,101851.25
2022-09-10T18:49:33.485Z,101879.97
2022-09-10T18:52:02.862Z,101903.84
2022-09-10T18:54:33.650Z,101915.22
2022-09-10T18:57:03.232Z,101941.59
2022-09-10T18:59:29.776Z,101949.31
2022-09-10T19:01:56.386Z,101958.09
2022-09-10T19:04:25.901Z,101968.19
2022-09-10T19:06:54.380Z,101970.69
2022-09-10T19:09:29.300Z,101974.84
2022-09-10T19:11:58.635Z,101977.09
2022-09-10T19:14:29.654Z,101980.63
2022-09-10T19:16:58.430Z,101993.84
2022-09-10T19:19:35.337Z,101994.59
2022-09-10T19:22:09.466Z,102004.25
2022-09-10T19:24:54.882Z,102003.91
2022-09-10T19:27:23.111Z,102008.94
2022-09-10T19:29:50.540Z,102015.06
2022-09-10T19:32:20.018Z,102012.38
2022-09-10T19:34:51.035Z,102018.38
2022-09-10T19:37:17.747Z,102012.47
2022-09-10T19:39:44.656Z,102025.59
2022-09-10T19:42:14.514Z,102021.91
2022-09-10T19:44:40.956Z,102035.81
2022-09-10T19:47:07.494Z,102043.03
2022-09-10T19:49:36.966Z,102068.84
2022-09-10T19:52:04.378Z,102079.81
2022-09-10T19:54:31.807Z,102105.91
2022-09-10T19:57:01.433Z,102124.06
2022-09-10T19:59:28.262Z,102149.88
2022-09-10T20:01:54.868Z,102179.03
2022-09-10T20:04:28.162Z,102188.88
2022-09-10T20:06:57.408Z,102199.59
2022-09-10T20:09:24.320Z,102204.16
2022-09-10T20:11:51.071Z,102211.59
2022-09-10T20:14:18.063Z,102233.59
2022-09-10T20:16:47.203Z,102223.31
2022-09-10T20:19:21.203Z,102240.06
2022-09-10T20:21:47.916Z,102233.19
2022-09-10T20:24:19.087Z,102246.47
2022-09-10T20:26:46.838Z,102251.13
2022-09-10T20:29:17.801Z,102257.53
2022-09-10T20:31:46.208Z,102258.78
2022-09-10T20:34:17.630Z,102271.34
2022-09-10T20:36:44.259Z,102270.13
2022-09-10T20:39:16.130Z,102285.16
2022-09-10T20:41:46.967Z,102287.72
2022-09-10T20:44:15.774Z,102292.06
2022-09-10T20:46:42.986Z,102302.06
2022-09-10T20:49:14.057Z,102314.16
2022-09-10T20:51:41.027Z,102323.03
2022-09-10T20:54:12.649Z,102346.09
2022-09-10T20:56:40.259Z,102341.94
2022-09-10T20:59:07.201Z,102371.97
2022-09-10T21:01:34.025Z,102373.69
2022-09-10T21:04:02.989Z,102379.91
2022-09-10T21:06:31.998Z,102388.13
2022-09-10T21:08:59.344Z,102385.78
2022-09-10T21:11:29.187Z,102393.78
2022-09-10T21:13:58.367Z,102397.16
2022-09-10T21:16:30.024Z,102401.13
2022-09-10T21:19:00.833Z,102402.84
2022-09-10T21:21:30.213Z,102409.06
2022-09-10T21:23:58.874Z,102415.94
2022-09-10T21:26:30.701Z,102435.78
2022-09-10T21:28:59.516Z,102451.53
2022-09-10T21:31:28.190Z,102464.75
2022-09-10T21:34:00.676Z,102489.56
2022-09-10T21:36:29.450Z,102501.50
2022-09-10T21:39:01.508Z,102520.50
2022-09-10T21:41:36.860Z,102536.22
2022-09-10T21:44:18.464Z,102554.00
2022-09-10T21:46:46.443Z,102568.78
2022-09-10T21:49:13.696Z,102582.69
2022-09-10T21:51:41.350Z,102591.28
2022-09-10T21:54:14.036Z,102592.63
2022-09-10T21:56:40.652Z,102608.75
2022-09-10T21:59:07.704Z,102618.69
2022-09-10T22:01:34.252Z,102628.84
2022-09-10T22:04:01.494Z,102652.31
2022-09-10T22:06:30.386Z,102656.25
2022-09-10T22:09:02.469Z,102657.88
2022-09-10T22:11:41.812Z,102662.00
2022-09-10T22:14:13.065Z,102674.44
2022-09-10T22:16:39.793Z,102679.69
2022-09-10T22:19:09.605Z,102685.69
2022-09-10T22:21:38.220Z,102697.97
2022-09-10T22:24:06.344Z,102706.84
2022-09-10T22:26:33.906Z,102733.50
2022-09-10T22:29:02.520Z,102755.31
2022-09-10T22:31:32.276Z,102771.78
2022-09-10T22:34:07.888Z,102783.53
2022-09-10T22:36:37.100Z,102799.78
2022-09-10T22:39:11.725Z,102824.16
2022-09-10T22:41:38.238Z,102830.84
2022-09-10T22:44:05.824Z,102847.78
2022-09-10T22:46:33.333Z,102857.75
2022-09-10T22:49:00.028Z,102877.31
2022-09-10T22:51:31.731Z,102897.84
2022-09-10T22:53:58.435Z,102910.69
2022-09-10T22:56:26.708Z,102924.16
2022-09-10T22:58:54.239Z,102953.38
2022-09-10T23:01:23.214Z,102965.69
2022-09-10T23:03:50.389Z,102988.88
2022-09-10T23:06:19.529Z,103005.66
2022-09-10T23:08:50.195Z,103040.81
2022-09-10T23:11:30.405Z,103072.91
2022-09-10T23:14:05.496Z,103095.94
2022-09-10T23:16:41.547Z,103117.31
2022-09-10T23:19:11.925Z,103135.31
2022-09-10T23:21:42.588Z,103163.66
2022-09-10T23:24:13.074Z,103422.63
2022-09-10T23:26:40.524Z,103457.28
2022-09-10T23:29:07.531Z,103597.97
2022-09-10T23:31:37.011Z,103644.03
2022-09-10T23:34:06.703Z,103648.97
2022-09-10T23:36:36.153Z,103693.34
2022-09-10T23:39:08.444Z,103717.38
2022-09-10T23:41:35.416Z,103743.06
2022-09-10T23:44:02.119Z,103760.75
2022-09-10T23:46:28.751Z,103778.38
2022-09-10T23:48:55.240Z,103803.28
2022-09-10T23:51:22.330Z,103832.72
2022-09-10T23:53:49.531Z,103847.75
2022-09-10T23:56:18.241Z,103870.75
2022-09-10T23:58:45.220Z,103868.88
